Time;durP1;ratioP1;P1;durP2;ratioP2;P2;SDS_P1;SDS_P2;PMS_P1;PMS_P2;Temp;Humidity;BMP_temperature;BMP_pressure;BME280_temperature;BME280_humidity;BME280_pressure;Samples;Min_cycle;Max_cycle;Signal;HPM_P1;HPM_P2
2022/03/19 00:00:37;;;;;;;;;;;;;;;-2.74;70.17;103003.64;1938081;74;20156;-59
2022/03/19 00:03:05;;;;;;;;;;;;;;;-2.73;70.30;102998.98;1914793;75;20175;-60
2022/03/19 00:05:33;;;;;;;;;;;;;;;-2.74;70.21;103004.93;1926731;74;20143;-60
2022/03/19 00:08:02;;;;;;;;;;;;;;;-2.75;70.18;103005.75;1931689;74;20104;-56
2022/03/19 00:10:29;;;;;;;;;;;;;;;-2.76;70.20;102997.93;1922036;74;20361;-57
2022/03/19 00:12:58;;;;;;;;;;;;;;;-2.79;70.22;102997.35;1949141;74;20112;-56
2022/03/19 00:15:26;;;;;;;;;;;;;;;-2.79;70.23;103000.34;1932683;74;20122;-56
2022/03/19 00:17:57;;;;;;;;;;;;;;;-2.79;70.20;102994.77;1938148;74;20112;-57
2022/03/19 00:20:24;;;;;;;;;;;;;;;-2.76;70.31;103001.39;1950448;74;20112;-57
2022/03/19 00:22:52;;;;;;;;;;;;;;;-2.78;70.21;103002.13;1950264;73;20120;-56
2022/03/19 00:25:20;;;;;;;;;;;;;;;-2.79;70.21;102993.48;1948635;74;20147;-55
2022/03/19 00:27:47;;;;;;;;;;;;;;;-2.79;70.25;102983.17;1933135;74;20385;-55
2022/03/19 00:30:15;;;;;;;;;;;;;;;-2.78;70.20;102978.92;1950346;74;20160;-57
2022/03/19 00:32:43;;;;;;;;;;;;;;;-2.79;70.21;102983.17;1943446;74;20264;-57
2022/03/19 00:35:12;;;;;;;;;;;;;;;-2.78;70.23;102973.77;1894672;76;20161;-56
2022/03/19 00:37:53;;;;;;;;;;;;;;;-2.79;70.22;102972.85;1894794;76;20141;-56
2022/03/19 00:40:22;;;;;;;;;;;;;;;-2.82;70.19;102961.49;1894738;76;20979;-54
2022/03/19 00:42:50;;;;;;;;;;;;;;;-2.80;70.14;102965.94;1894785;76;20118;-56
2022/03/19 00:45:18;;;;;;;;;;;;;;;-2.83;70.07;102961.91;1894863;76;20169;-57
2022/03/19 00:47:46;;;;;;;;;;;;;;;-2.86;69.96;102957.87;1894794;76;20169;-57
2022/03/19 00:50:13;;;;;;;;;;;;;;;-2.88;69.99;102967.63;1894795;76;20149;-56
2022/03/19 00:52:41;;;;;;;;;;;;;;;-2.90;69.90;102962.39;1898230;74;20145;-56
2022/03/19 00:55:09;;;;;;;;;;;;;;;-2.92;69.76;102967.88;1950474;74;20148;-56
2022/03/19 00:57:41;;;;;;;;;;;;;;;-2.92;69.77;102966.59;1950360;74;20100;-55
2022/03/19 01:00:11;;;;;;;;;;;;;;;-2.91;69.69;102967.08;1941694;74;20382;-53
2022/03/19 01:02:40;;;;;;;;;;;;;;;-2.94;69.54;102963.05;1932180;74;20157;-55
2022/03/19 01:05:08;;;;;;;;;;;;;;;-2.97;69.62;102960.30;1912801;74;20395;-52
2022/03/19 01:07:43;;;;;;;;;;;;;;;-2.97;69.61;102952.56;1919695;74;20124;-53
2022/03/19 01:10:12;;;;;;;;;;;;;;;-2.99;69.61;102954.18;1925795;73;20688;-59
2022/03/19 01:12:40;;;;;;;;;;;;;;;-2.98;69.55;102961.13;1928117;74;20365;-59
2022/03/19 01:17:56;;;;;;;;;;;;;;;-3.04;69.42;102953.95;1908036;75;20151;-57
2022/03/19 01:20:24;;;;;;;;;;;;;;;-3.03;69.40;102961.28;1909152;75;20118;-59
2022/03/19 01:22:52;;;;;;;;;;;;;;;-3.04;69.25;102960.78;1911142;75;20118;-56
2022/03/19 01:25:20;;;;;;;;;;;;;;;-3.03;69.24;102952.25;1909134;75;20122;-56
2022/03/19 01:27:49;;;;;;;;;;;;;;;-3.05;69.14;102952.58;1921066;75;20145;-57
2022/03/19 01:30:18;;;;;;;;;;;;;;;-3.05;69.07;102954.75;1921179;75;20118;-56
2022/03/19 01:32:47;;;;;;;;;;;;;;;-3.08;69.14;102952.41;1921005;75;20114;-57
2022/03/19 01:35:16;;;;;;;;;;;;;;;-3.07;69.07;102952.91;1889056;75;20110;-58
2022/03/19 01:37:43;;;;;;;;;;;;;;;-3.07;69.06;102946.47;1918527;75;20145;-58
2022/03/19 01:40:13;;;;;;;;;;;;;;;-3.13;68.92;102958.63;1913131;75;20141;-54
2022/03/19 01:42:42;;;;;;;;;;;;;;;-3.15;68.90;102948.23;1894349;76;20170;-57
2022/03/19 01:45:11;;;;;;;;;;;;;;;-3.14;68.98;102954.27;1894319;76;20537;-56
2022/03/19 01:47:39;;;;;;;;;;;;;;;-3.14;68.99;102959.01;1894242;76;20406;-58
2022/03/19 01:50:07;;;;;;;;;;;;;;;-3.15;68.92;102957.25;1894239;76;20136;-57
2022/03/19 01:52:36;;;;;;;;;;;;;;;-3.15;68.95;102963.70;1910932;74;20156;-57
2022/03/19 01:55:05;;;;;;;;;;;;;;;-3.15;68.98;102957.25;1882870;76;20151;-57
2022/03/19 01:57:35;;;;;;;;;;;;;;;-3.14;68.98;102959.01;1888664;75;20389;-57
2022/03/19 02:00:06;;;;;;;;;;;;;;;-3.15;68.92;102959.83;1901328;75;20108;-57
2022/03/19 02:02:36;;;;;;;;;;;;;;;-3.18;68.96;102950.64;1901030;75;20850;-57
2022/03/19 02:05:04;;;;;;;;;;;;;;;-3.19;68.94;102948.88;1901407;75;20222;-57
2022/03/19 02:07:32;;;;;;;;;;;;;;;-3.20;68.94;102944.94;1902198;75;20122;-57
2022/03/19 02:10:01;;;;;;;;;;;;;;;-3.19;68.95;102948.88;1900589;75;20252;-56
2022/03/19 02:12:29;;;;;;;;;;;;;;;-3.18;68.97;102953.22;1902354;75;20120;-57
2022/03/19 02:14:57;;;;;;;;;;;;;;;-3.20;68.91;102943.23;1902739;75;20362;-57
2022/03/19 02:17:26;;;;;;;;;;;;;;;-3.20;68.98;102944.52;1894987;75;20125;-57
2022/03/19 02:19:54;;;;;;;;;;;;;;;-3.19;68.92;102950.17;1889932;76;20112;-58
2022/03/19 02:22:26;;;;;;;;;;;;;;;-3.20;68.91;102943.23;1865127;76;20108;-58
2022/03/19 02:27:40;;;;;;;;;;;;;;;-3.19;68.77;102938.58;1889877;76;20211;-57
2022/03/19 02:30:10;;;;;;;;;;;;;;;-3.22;68.76;102930.67;1889866;76;20152;-57
2022/03/19 02:32:39;;;;;;;;;;;;;;;-3.21;68.79;102928.59;1889965;76;20382;-58
2022/03/19 02:35:07;;;;;;;;;;;;;;;-3.18;68.74;102934.30;1889916;76;20113;-57
2022/03/19 02:37:39;;;;;;;;;;;;;;;-3.19;68.62;102938.58;1889852;76;20121;-57
2022/03/19 02:40:09;;;;;;;;;;;;;;;-3.22;68.68;102937.12;1890048;76;20403;-56
2022/03/19 02:42:37;;;;;;;;;;;;;;;-3.23;68.53;102940.48;1888590;76;20116;-55
2022/03/19 02:45:08;;;;;;;;;;;;;;;-3.24;68.50;102934.86;1889875;76;20151;-57
2022/03/19 02:50:22;;;;;;;;;;;;;;;-3.25;68.54;102930.50;1890042;76;20207;-55
2022/03/19 02:52:50;;;;;;;;;;;;;;;-3.28;68.63;102939.38;1889921;76;20235;-54
2022/03/19 02:55:18;;;;;;;;;;;;;;;-3.28;68.61;102941.95;1889890;76;20151;-55
2022/03/19 02:57:46;;;;;;;;;;;;;;;-3.29;68.47;102938.87;1889895;76;20151;-54
2022/03/19 03:00:14;;;;;;;;;;;;;;;-3.32;68.54;102946.06;1889893;76;20108;-54
2022/03/19 03:02:42;;;;;;;;;;;;;;;-3.30;68.53;102942.28;1889795;76;20121;-55
2022/03/19 03:05:12;;;;;;;;;;;;;;;-3.26;68.51;102942.92;1889910;76;20153;-55
2022/03/19 03:07:40;;;;;;;;;;;;;;;-3.26;68.43;102939.05;1890030;76;20116;-56
2022/03/19 03:10:08;;;;;;;;;;;;;;;-3.27;68.37;102943.70;1889894;76;20147;-56
2022/03/19 03:12:37;;;;;;;;;;;;;;;-3.28;68.40;102939.38;1889866;76;20151;-56
2022/03/19 03:15:05;;;;;;;;;;;;;;;-3.28;68.38;102930.36;1889817;76;20405;-56
2022/03/19 03:17:36;;;;;;;;;;;;;;;-3.29;68.28;102922.13;1904941;74;20150;-55
2022/03/19 03:20:04;;;;;;;;;;;;;;;-3.32;68.29;102934.47;1927186;74;20156;-56
2022/03/19 03:22:32;;;;;;;;;;;;;;;-3.31;68.30;102935.34;1927059;74;20106;-55
2022/03/19 03:24:59;;;;;;;;;;;;;;;-3.31;68.20;102931.48;1927048;74;20121;-54
2022/03/19 03:27:27;;;;;;;;;;;;;;;-3.32;68.18;102933.55;1927110;74;20114;-55
2022/03/19 03:29:55;;;;;;;;;;;;;;;-3.34;68.17;102941.23;1926898;74;20118;-55
2022/03/19 03:32:23;;;;;;;;;;;;;;;-3.34;68.11;102936.45;1927167;74;20351;-53
2022/03/19 03:34:50;;;;;;;;;;;;;;;-3.36;68.11;102944.51;1927071;74;20439;-53
2022/03/19 03:37:18;;;;;;;;;;;;;;;-3.36;68.17;102941.52;1927048;74;20126;-53
2022/03/19 03:39:46;;;;;;;;;;;;;;;-3.36;68.13;102940.23;1927016;74;20114;-54
2022/03/19 03:42:13;;;;;;;;;;;;;;;-3.36;68.16;102941.93;1927005;74;20106;-54
2022/03/19 03:44:42;;;;;;;;;;;;;;;-3.34;68.12;102944.19;1927017;74;20613;-54
2022/03/19 03:47:10;;;;;;;;;;;;;;;-3.35;68.13;102943.30;1927082;74;20110;-54
2022/03/19 03:49:38;;;;;;;;;;;;;;;-3.35;68.12;102951.45;1927044;74;20106;-57
2022/03/19 03:52:07;;;;;;;;;;;;;;;-3.34;68.09;102950.62;1926998;74;20144;-56
2022/03/19 03:54:35;;;;;;;;;;;;;;;-3.37;68.11;102946.62;1894153;74;20113;-55
2022/03/19 03:57:03;;;;;;;;;;;;;;;-3.36;68.14;102938.06;1888233;76;20155;-55
2022/03/19 03:59:31;;;;;;;;;;;;;;;-3.36;68.17;102941.52;1888305;76;20170;-55
2022/03/19 04:01:59;;;;;;;;;;;;;;;-3.33;68.17;102948.55;1888310;76;20104;-55
2022/03/19 04:04:27;;;;;;;;;;;;;;;-3.36;68.18;102948.37;1888281;76;20121;-55
2022/03/19 04:06:55;;;;;;;;;;;;;;;-3.35;68.18;102938.16;1888308;76;20587;-55
2022/03/19 04:09:22;;;;;;;;;;;;;;;-3.33;68.18;102943.39;1888218;76;20105;-56
2022/03/19 04:11:50;;;;;;;;;;;;;;;-3.31;68.11;102941.78;1888298;76;20226;-56
2022/03/19 04:14:20;;;;;;;;;;;;;;;-3.31;68.06;102940.49;1888284;76;20147;-56
2022/03/19 04:16:47;;;;;;;;;;;;;;;-3.34;67.97;102941.23;1888471;76;20105;-55
2022/03/19 04:19:15;;;;;;;;;;;;;;;-3.37;68.01;102933.33;1868017;76;20117;-55
2022/03/19 04:21:43;;;;;;;;;;;;;;;-3.37;68.08;102941.47;1864672;77;20112;-55
2022/03/19 04:24:11;;;;;;;;;;;;;;;-3.37;68.12;102945.33;1864578;77;20229;-57
2022/03/19 04:26:38;;;;;;;;;;;;;;;-3.36;68.14;102941.93;1864726;77;20108;-57
2022/03/19 04:29:06;;;;;;;;;;;;;;;-3.36;68.12;102944.51;1864662;77;20116;-58
2022/03/19 04:31:34;;;;;;;;;;;;;;;-3.32;68.09;102952.88;1864619;77;20120;-58
2022/03/19 04:34:01;;;;;;;;;;;;;;;-3.31;68.13;102936.62;1864595;77;20190;-58
2022/03/19 04:36:38;;;;;;;;;;;;;;;-3.31;68.12;102949.51;1864538;77;20151;-57
2022/03/19 04:39:07;;;;;;;;;;;;;;;-3.27;68.10;102949.27;1864646;77;20151;-58
2022/03/19 04:41:36;;;;;;;;;;;;;;;-3.27;68.14;102955.30;1864848;77;20524;-57
2022/03/19 04:44:04;;;;;;;;;;;;;;;-3.26;68.08;102946.78;1864740;77;20378;-57
2022/03/19 04:46:32;;;;;;;;;;;;;;;-3.23;68.07;102945.64;1864636;77;20113;-56
2022/03/19 04:49:00;;;;;;;;;;;;;;;-3.22;68.08;102952.58;1864566;77;20108;-58
2022/03/19 04:51:29;;;;;;;;;;;;;;;-3.19;68.03;102956.61;1864637;77;20151;-55
2022/03/19 04:56:45;;;;;;;;;;;;;;;-3.14;68.02;102957.72;1844912;78;20405;-56
2022/03/19 04:59:15;;;;;;;;;;;;;;;-3.11;67.90;102951.86;1844855;78;20116;-56
2022/03/19 05:01:43;;;;;;;;;;;;;;;-3.12;67.88;102957.42;1844916;78;20473;-58
2022/03/19 05:04:11;;;;;;;;;;;;;;;-3.15;67.91;102967.56;1844862;78;20129;-57
2022/03/19 05:06:39;;;;;;;;;;;;;;;-3.16;67.96;102966.19;1844883;78;20168;-57
2022/03/19 05:11:52;;;;;;;;;;;;;;;-3.12;68.04;102963.88;1844829;78;20117;-57
2022/03/19 05:14:20;;;;;;;;;;;;;;;-3.07;68.03;102964.51;1844753;78;20191;-56
2022/03/19 05:16:48;;;;;;;;;;;;;;;-2.99;67.98;102964.49;1844878;78;20151;-57
2022/03/19 05:19:15;;;;;;;;;;;;;;;-2.92;67.72;102964.89;1844989;78;20147;-57
2022/03/19 05:21:43;;;;;;;;;;;;;;;-2.86;67.70;102960.86;1844879;78;20116;-57
2022/03/19 05:24:11;;;;;;;;;;;;;;;-2.86;67.60;102957.87;1844838;78;20183;-57
2022/03/19 05:26:39;;;;;;;;;;;;;;;-2.81;67.66;102959.00;1844747;78;20215;-58
2022/03/19 05:29:06;;;;;;;;;;;;;;;-2.79;67.56;102956.09;1844877;78;20116;-58
2022/03/19 05:31:34;;;;;;;;;;;;;;;-2.79;67.45;102961.66;1858971;76;20153;-59
2022/03/19 05:36:48;;;;;;;;;;;;;;;-2.70;67.44;102966.41;1857377;77;20192;-57
2022/03/19 05:39:16;;;;;;;;;;;;;;;-2.73;67.30;102967.12;1854016;77;20182;-57
2022/03/19 05:41:44;;;;;;;;;;;;;;;-2.72;67.37;102959.47;1854030;77;20127;-58
2022/03/19 05:44:12;;;;;;;;;;;;;;;-2.66;67.33;102958.02;1854010;77;20123;-56
2022/03/19 05:46:39;;;;;;;;;;;;;;;-2.62;67.34;102963.43;1854012;77;20157;-56
2022/03/19 05:49:07;;;;;;;;;;;;;;;-2.46;67.28;102954.75;1857721;77;20149;-57
2022/03/19 05:51:35;;;;;;;;;;;;;;;-2.39;66.96;102959.41;1862012;77;20107;-57
2022/03/19 05:54:03;;;;;;;;;;;;;;;-2.28;66.90;102956.48;1848022;77;20120;-56
2022/03/19 05:56:31;;;;;;;;;;;;;;;-2.22;66.71;102958.06;1839563;77;20121;-57
2022/03/19 05:58:59;;;;;;;;;;;;;;;-2.14;66.37;102969.64;1839529;78;20168;-57
2022/03/19 06:01:27;;;;;;;;;;;;;;;-2.08;66.17;102962.63;1839557;78;20154;-57
2022/03/19 06:03:58;;;;;;;;;;;;;;;-2.08;65.83;102962.22;1839458;78;20120;-58
2022/03/19 06:06:26;;;;;;;;;;;;;;;-2.08;65.96;102966.09;1839652;78;20383;-58
2022/03/19 06:08:55;;;;;;;;;;;;;;;-2.11;65.86;102962.47;1839619;78;20152;-57
2022/03/19 06:11:23;;;;;;;;;;;;;;;-2.09;65.78;102966.89;1839654;78;20397;-57
2022/03/19 06:13:51;;;;;;;;;;;;;;;-2.09;65.72;102968.59;1839508;78;20128;-58
2022/03/19 06:16:19;;;;;;;;;;;;;;;-2.07;65.67;102969.13;1839531;78;20155;-57
2022/03/19 06:18:50;;;;;;;;;;;;;;;-2.03;65.59;102969.79;1839584;78;20234;-57
2022/03/19 06:21:16;;;;;;;;;;;;;;;-2.00;65.36;102966.04;1839535;78;20121;-58
2022/03/19 06:23:46;;;;;;;;;;;;;;;-2.00;65.45;102974.20;1839546;78;20155;-56
2022/03/19 06:26:14;;;;;;;;;;;;;;;-1.95;65.47;102971.02;1855635;77;20118;-56
2022/03/19 06:28:42;;;;;;;;;;;;;;;-1.93;65.48;102971.11;1862368;77;20111;-56
2022/03/19 06:31:10;;;;;;;;;;;;;;;-1.86;65.51;102972.27;1862286;77;20165;-56
2022/03/19 06:33:42;;;;;;;;;;;;;;;-1.80;65.32;102979.03;1862400;77;20152;-57
2022/03/19 06:38:55;;;;;;;;;;;;;;;-1.72;65.33;102958.31;1862445;77;20122;-55
2022/03/19 06:41:23;;;;;;;;;;;;;;;-1.63;65.19;102975.95;1862299;77;20118;-56
2022/03/19 06:43:51;;;;;;;;;;;;;;;-1.57;65.06;102964.60;1862315;77;20174;-58
2022/03/19 06:46:20;;;;;;;;;;;;;;;-1.57;64.99;102962.93;1862360;77;20125;-57
2022/03/19 06:48:49;;;;;;;;;;;;;;;-1.53;64.97;102944.96;1862589;77;20145;-57
2022/03/19 06:51:20;;;;;;;;;;;;;;;-1.53;64.85;102958.80;1862517;77;20119;-56
2022/03/19 06:53:49;;;;;;;;;;;;;;;-1.52;64.56;102967.00;1850316;77;20108;-56
2022/03/19 06:56:17;;;;;;;;;;;;;;;-1.51;64.62;102963.62;1839348;78;20216;-55
2022/03/19 06:58:45;;;;;;;;;;;;;;;-1.45;64.45;102960.43;1839643;78;20124;-56
2022/03/19 07:01:16;;;;;;;;;;;;;;;-1.36;64.68;102963.44;1839529;78;20116;-56
2022/03/19 07:03:45;;;;;;;;;;;;;;;-1.23;64.62;102952.83;1839626;78;20157;-56
2022/03/19 07:06:13;;;;;;;;;;;;;;;-1.18;64.28;102966.86;1839091;78;20112;-57
2022/03/19 07:08:41;;;;;;;;;;;;;;;-1.12;64.05;102970.55;1839442;78;20124;-57
2022/03/19 07:11:09;;;;;;;;;;;;;;;-1.10;63.83;102975.37;1839606;78;20121;-56
2022/03/19 07:13:37;;;;;;;;;;;;;;;-1.12;63.71;102962.78;1839535;78;20151;-56
2022/03/19 07:16:06;;;;;;;;;;;;;;;-1.12;63.77;102967.54;1839485;78;20160;-57
2022/03/19 07:18:34;;;;;;;;;;;;;;;-1.10;63.45;102967.61;1839607;78;20117;-57
2022/03/19 07:21:02;;;;;;;;;;;;;;;-1.11;63.63;102961.95;1839415;78;20155;-58
2022/03/19 07:23:30;;;;;;;;;;;;;;;-1.05;63.58;102964.80;1839527;78;20188;-56
2022/03/19 07:25:59;;;;;;;;;;;;;;;-1.03;63.47;102958.90;1856493;77;20102;-56
2022/03/19 07:28:27;;;;;;;;;;;;;;;-0.99;63.56;102948.28;1868209;77;20380;-56
2022/03/19 07:30:56;;;;;;;;;;;;;;;-0.94;63.38;102950.67;1868071;77;20126;-57
2022/03/19 07:33:24;;;;;;;;;;;;;;;-0.87;63.55;102946.62;1868173;77;20385;-57
2022/03/19 07:35:52;;;;;;;;;;;;;;;-0.78;63.50;102940.14;1867968;77;20177;-56
2022/03/19 07:38:20;;;;;;;;;;;;;;;-0.70;63.28;102944.77;1868103;77;20245;-56
2022/03/19 07:43:33;;;;;;;;;;;;;;;-0.60;62.95;102941.77;1868035;77;20126;-59
2022/03/19 07:46:01;;;;;;;;;;;;;;;-0.56;62.92;102947.95;1867984;77;20102;-58
2022/03/19 07:48:29;;;;;;;;;;;;;;;-0.43;62.87;102952.81;1868110;77;20247;-57
2022/03/19 07:50:57;;;;;;;;;;;;;;;-0.25;63.01;102937.16;1867997;77;20118;-58
2022/03/19 07:53:24;;;;;;;;;;;;;;;-0.15;62.14;102931.52;1868045;77;20126;-57
2022/03/19 07:55:55;;;;;;;;;;;;;;;-0.04;61.79;102935.45;1868018;77;20118;-57
2022/03/19 07:58:22;;;;;;;;;;;;;;;0.06;61.12;102930.22;1868155;77;20249;-57
2022/03/19 08:00:51;;;;;;;;;;;;;;;0.16;60.75;102943.11;1867981;77;20494;-54
2022/03/19 08:03:19;;;;;;;;;;;;;;;0.35;60.47;102933.95;1859284;77;20153;-55
2022/03/19 08:05:47;;;;;;;;;;;;;;;0.49;59.92;102933.16;1868101;77;20408;-57
2022/03/19 08:08:15;;;;;;;;;;;;;;;0.60;60.36;102937.45;1867995;77;20122;-57
2022/03/19 08:10:43;;;;;;;;;;;;;;;0.70;60.13;102938.28;1868002;77;20110;-58
2022/03/19 08:13:11;;;;;;;;;;;;;;;0.75;59.64;102932.82;1867916;77;20126;-58
2022/03/19 08:15:40;;;;;;;;;;;;;;;0.74;60.22;102937.98;1868111;77;20395;-58
2022/03/19 08:18:09;;;;;;;;;;;;;;;0.78;60.19;102945.45;1868109;77;20122;-56
2022/03/19 08:20:37;;;;;;;;;;;;;;;0.77;60.45;102949.73;1868109;77;20412;-57
2022/03/19 08:26:27;;;;;;;;;;;;;;;0.65;60.39;102957.09;1843494;77;20120;-56
2022/03/19 08:32:17;;;;;;;;;;;;;;;0.36;60.99;102955.13;1838843;78;20168;-57
2022/03/19 08:44:15;;;;;;;;;;;;;;;0.30;61.90;102951.02;1838849;78;20409;-57
2022/03/19 08:50:06;;;;;;;;;;;;;;;0.34;61.12;102946.42;1838827;78;20120;-57
2022/03/19 08:55:43;;;;;;;;;;;;;;;0.31;60.20;102948.00;1838842;78;20135;-58
2022/03/19 09:01:21;;;;;;;;;;;;;;;0.37;59.78;102950.44;1828275;78;20516;-56
2022/03/19 09:07:13;;;;;;;;;;;;;;;0.44;59.57;102940.29;1805309;79;20229;-57
2022/03/19 09:13:02;;;;;;;;;;;;;;;0.52;59.27;102937.59;1805319;78;20130;-57
2022/03/19 09:18:39;;;;;;;;;;;;;;;0.54;59.40;102935.94;1798488;79;20154;-59
2022/03/19 09:24:29;;;;;;;;;;;;;;;0.62;59.73;102937.09;1794377;79;20430;-60
2022/03/19 09:30:19;;;;;;;;;;;;;;;0.66;59.37;102935.50;1808213;79;20134;-56
2022/03/19 09:36:10;;;;;;;;;;;;;;;0.69;59.26;102924.83;1807876;79;20118;-57
2022/03/19 09:41:59;;;;;;;;;;;;;;;0.75;58.86;102941.90;1808368;79;20397;-59
2022/03/19 09:47:51;;;;;;;;;;;;;;;0.85;58.29;102937.05;1808416;79;20159;-60
2022/03/19 09:53:44;;;;;;;;;;;;;;;0.95;58.44;102924.47;1808379;78;20198;-59
2022/03/19 09:59:22;;;;;;;;;;;;;;;1.10;58.71;102916.77;1817866;77;20123;-60
2022/03/19 10:08:35;;;;;;;;;;;;;;;1.23;58.67;102915.48;1813119;79;20438;-59
2022/03/19 10:10:50;;;;;;;;;;;;;;;1.40;58.68;102896.16;1822956;78;20380;-58
2022/03/19 10:16:40;;;;;;;;;;;;;;;1.42;58.40;102899.71;1841467;78;20119;-58
2022/03/19 10:22:30;;;;;;;;;;;;;;;1.53;58.08;102889.27;1845600;78;20123;-58
2022/03/19 10:28:22;;;;;;;;;;;;;;;1.66;57.68;102874.97;1792850;79;20142;-61
2022/03/19 10:34:15;;;;;;;;;;;;;;;1.73;56.66;102864.33;1810910;79;20158;-61
2022/03/19 10:40:06;;;;;;;;;;;;;;;1.77;56.00;102862.32;1810855;79;20150;-62
2022/03/19 10:45:56;;;;;;;;;;;;;;;1.83;56.73;102863.80;1788453;80;20204;-60
2022/03/19 10:51:47;;;;;;;;;;;;;;;1.86;56.85;102861.31;1787571;80;20275;-60
2022/03/19 10:57:37;;;;;;;;;;;;;;;1.77;56.62;102872.71;1787954;80;20148;-62
2022/03/19 11:00:06;;;;;;;;;;;;;;;1.69;55.90;102865.08;1790388;80;20204;-61
2022/03/19 11:06:08;;;;;;;;;;;;;;;1.69;56.20;102859.88;1782231;80;20129;-62
2022/03/19 11:11:59;;;;;;;;;;;;;;;1.64;56.37;102861.05;1771126;80;20402;-62
2022/03/19 11:17:49;;;;;;;;;;;;;;;1.64;56.71;102863.65;1769039;80;20133;-62
2022/03/19 11:23:40;;;;;;;;;;;;;;;1.70;56.88;102849.97;1783192;80;20148;-62
2022/03/19 11:29:30;;;;;;;;;;;;;;;1.75;57.09;102843.18;1822923;79;20391;-63
2022/03/19 11:32:06;;;;;;;;;;;;;;;1.76;56.58;102846.69;1822980;79;20112;-62
2022/03/19 11:34:44;;;;;;;;;;;;;;;1.74;56.60;102844.03;1823082;79;20417;-62
2022/03/19 11:37:13;;;;;;;;;;;;;;;1.77;56.65;102831.15;1822859;78;20125;-62
2022/03/19 11:39:42;;;;;;;;;;;;;;;1.77;56.71;102837.64;1827035;78;20195;-62
2022/03/19 11:42:13;;;;;;;;;;;;;;;1.80;56.58;102835.12;1823448;78;20160;-62
2022/03/19 11:44:53;;;;;;;;;;;;;;;1.82;56.83;102838.64;1822814;78;20155;-62
2022/03/19 11:47:21;;;;;;;;;;;;;;;1.85;56.92;102845.24;1822928;79;20109;-62
2022/03/19 11:49:53;;;;;;;;;;;;;;;1.87;56.95;102837.08;1822999;79;20476;-63
2022/03/19 11:52:23;;;;;;;;;;;;;;;1.90;56.92;102840.17;1822961;79;20486;-62
2022/03/19 11:55:04;;;;;;;;;;;;;;;1.91;57.10;102838.05;1822931;79;20153;-62
2022/03/19 11:57:55;;;;;;;;;;;;;;;1.95;56.96;102833.83;1822927;79;20175;-62
2022/03/19 12:00:18;;;;;;;;;;;;;;;1.94;56.89;102825.16;1820820;78;20125;-62
2022/03/19 12:03:04;;;;;;;;;;;;;;;1.91;57.03;102834.16;1816298;79;20201;-62
2022/03/19 12:05:33;;;;;;;;;;;;;;;1.90;56.75;102837.57;1817743;79;20121;-62
2022/03/19 12:08:06;;;;;;;;;;;;;;;1.84;56.68;102836.97;1817883;79;20453;-62
2022/03/19 12:10:42;;;;;;;;;;;;;;;1.80;56.94;102828.62;1818008;79;20352;-63
2022/03/19 12:13:23;;;;;;;;;;;;;;;1.80;56.92;102840.31;1817684;79;20208;-61
2022/03/19 12:15:52;;;;;;;;;;;;;;;1.82;57.06;102833.87;1817632;79;20271;-61
2022/03/19 12:18:21;;;;;;;;;;;;;;;1.84;57.07;102843.47;1817753;79;20156;-61
2022/03/19 12:20:51;;;;;;;;;;;;;;;1.83;57.15;102840.42;1817620;79;20121;-61
2022/03/19 12:23:20;;;;;;;;;;;;;;;1.83;57.18;102835.23;1817684;79;20150;-61
2022/03/19 12:25:54;;;;;;;;;;;;;;;1.85;57.30;102842.64;1820358;77;20216;-60
2022/03/19 12:28:21;;;;;;;;;;;;;;;1.88;57.32;102837.55;1841215;78;20205;-60
2022/03/19 12:30:50;;;;;;;;;;;;;;;1.89;57.18;102850.98;1840836;78;20119;-60
2022/03/19 12:33:18;;;;;;;;;;;;;;;1.82;57.02;102838.64;1815179;79;20123;-60
2022/03/19 12:35:46;;;;;;;;;;;;;;;1.76;56.92;102833.27;1814985;79;20146;-61
2022/03/19 12:38:25;;;;;;;;;;;;;;;1.71;56.82;102838.30;1815421;79;20124;-61
2022/03/19 12:43:41;;;;;;;;;;;;;;;1.68;57.21;102846.02;1812252;79;20169;-61
2022/03/19 12:46:08;;;;;;;;;;;;;;;1.68;57.15;102835.63;1808672;79;20153;-61
2022/03/19 12:48:39;;;;;;;;;;;;;;;1.68;57.19;102834.77;1808743;79;20125;-61
2022/03/19 12:51:06;;;;;;;;;;;;;;;1.69;57.13;102835.21;1808784;79;20121;-61
2022/03/19 12:53:38;;;;;;;;;;;;;;;1.70;57.24;102832.66;1808851;79;20135;-61
2022/03/19 12:56:23;;;;;;;;;;;;;;;1.72;57.29;102837.91;1808878;79;20383;-62
2022/03/19 12:58:52;;;;;;;;;;;;;;;1.74;57.39;102831.05;1808748;79;20180;-62
2022/03/19 13:01:21;;;;;;;;;;;;;;;1.72;57.42;102838.78;1808721;79;20177;-62
2022/03/19 13:03:54;;;;;;;;;;;;;;;1.75;57.55;102830.20;1808637;79;20160;-62
2022/03/19 13:06:41;;;;;;;;;;;;;;;1.77;57.58;102828.95;1809110;79;20181;-61
2022/03/19 13:09:40;;;;;;;;;;;;;;;1.77;57.63;102824.66;1808618;79;20138;-65
2022/03/19 13:12:19;;;;;;;;;;;;;;;1.81;57.74;102836.90;1810337;79;20157;-63
2022/03/19 13:14:48;;;;;;;;;;;;;;;1.85;57.72;102836.15;1808731;79;20126;-62
2022/03/19 13:17:18;;;;;;;;;;;;;;;1.87;57.79;102845.30;1808603;79;20426;-61
2022/03/19 13:19:48;;;;;;;;;;;;;;;1.87;57.93;102830.58;1808806;79;20364;-62
2022/03/19 13:22:19;;;;;;;;;;;;;;;1.90;57.96;102837.57;1810374;79;20125;-61
2022/03/19 13:24:46;;;;;;;;;;;;;;;1.88;57.76;102832.36;1808470;79;20122;-61
2022/03/19 13:27:15;;;;;;;;;;;;;;;1.88;57.72;102841.45;1815270;77;20466;-61
2022/03/19 13:29:43;;;;;;;;;;;;;;;1.88;57.57;102834.95;1841386;78;20120;-60
2022/03/19 13:32:13;;;;;;;;;;;;;;;1.87;57.51;102838.38;1842210;78;20633;-61
2022/03/19 13:34:46;;;;;;;;;;;;;;;1.86;57.55;102835.33;1788380;80;20163;-61
2022/03/19 13:37:15;;;;;;;;;;;;;;;1.87;57.35;102822.78;1787996;80;20167;-61
2022/03/19 13:39:46;;;;;;;;;;;;;;;1.88;57.46;102827.55;1788164;80;20123;-61
2022/03/19 13:42:17;;;;;;;;;;;;;;;1.85;57.06;102827.06;1787578;80;20253;-61
2022/03/19 13:44:46;;;;;;;;;;;;;;;1.85;57.20;102820.56;1791101;79;20295;-60
2022/03/19 13:47:18;;;;;;;;;;;;;;;1.87;57.35;102820.62;1808381;79;20454;-61
2022/03/19 13:49:47;;;;;;;;;;;;;;;1.88;57.49;102823.27;1808800;79;20121;-61
2022/03/19 13:52:29;;;;;;;;;;;;;;;1.89;57.69;102822.41;1808045;79;20360;-60
2022/03/19 13:54:57;;;;;;;;;;;;;;;1.91;57.57;102829.83;1808588;79;20470;-62
2022/03/19 13:57:39;;;;;;;;;;;;;;;1.91;57.74;102832.42;1808261;79;20450;-62
2022/03/19 14:00:14;;;;;;;;;;;;;;;1.92;57.81;102834.20;1808768;79;20152;-60
2022/03/19 14:02:44;;;;;;;;;;;;;;;1.92;57.63;102838.11;1815450;79;20126;-63
2022/03/19 14:05:12;;;;;;;;;;;;;;;1.92;57.38;102839.41;1817028;79;20168;-64
2022/03/19 14:07:41;;;;;;;;;;;;;;;1.90;57.53;102838.48;1817054;79;20161;-62
2022/03/19 14:10:15;;;;;;;;;;;;;;;1.90;57.65;102838.48;1816950;79;20113;-62
2022/03/19 14:12:43;;;;;;;;;;;;;;;1.91;57.55;102836.75;1816810;79;20121;-61
2022/03/19 14:15:12;;;;;;;;;;;;;;;1.89;57.54;102838.00;1817098;79;20126;-61
2022/03/19 14:17:44;;;;;;;;;;;;;;;1.87;57.48;102836.20;1817001;78;20121;-63
2022/03/19 14:20:12;;;;;;;;;;;;;;;1.86;57.54;102831.44;1816886;78;20247;-61
2022/03/19 14:22:40;;;;;;;;;;;;;;;1.87;57.56;102829.70;1816986;79;20113;-61
2022/03/19 14:25:08;;;;;;;;;;;;;;;1.87;57.27;102831.88;1816987;79;20149;-61
2022/03/19 14:27:37;;;;;;;;;;;;;;;1.86;57.30;102825.33;1817033;79;20133;-61
2022/03/19 14:30:06;;;;;;;;;;;;;;;1.85;57.37;102824.89;1816954;79;20383;-62
2022/03/19 14:32:34;;;;;;;;;;;;;;;1.84;57.49;102833.08;1816795;79;20223;-62
2022/03/19 14:35:03;;;;;;;;;;;;;;;1.84;57.70;102827.88;1816941;79;20160;-61
2022/03/19 14:37:30;;;;;;;;;;;;;;;1.83;57.86;102823.53;1816906;79;20136;-62
2022/03/19 14:39:58;;;;;;;;;;;;;;;1.82;57.71;102825.66;1816926;79;20109;-62
2022/03/19 14:42:26;;;;;;;;;;;;;;;1.82;57.37;102834.75;1817233;79;20117;-61
2022/03/19 14:44:58;;;;;;;;;;;;;;;1.82;57.53;102821.76;1816839;79;20117;-61
2022/03/19 14:47:28;;;;;;;;;;;;;;;1.83;57.34;102830.03;1816686;79;20154;-61
2022/03/19 14:50:07;;;;;;;;;;;;;;;1.82;57.43;102830.84;1816610;79;20515;-61
2022/03/19 14:52:31;;;;;;;;;;;;;;;1.81;57.49;102825.20;1816561;79;20121;-61
2022/03/19 14:54:59;;;;;;;;;;;;;;;1.82;57.28;102821.76;1816854;79;20126;-60
2022/03/19 14:57:26;;;;;;;;;;;;;;;1.81;57.36;102833.00;1816815;79;20155;-62
2022/03/19 14:59:56;;;;;;;;;;;;;;;1.78;57.45;102826.41;1816933;79;20243;-61
2022/03/19 15:02:25;;;;;;;;;;;;;;;1.79;57.60;102824.28;1819596;78;20394;-61
2022/03/19 15:04:53;;;;;;;;;;;;;;;1.78;57.60;102825.10;1823107;79;20125;-61